createdAt,value
2022-09-03T00:00:43.262Z,14.77
2022-09-03T00:03:26.003Z,16.74
2022-09-03T00:06:10.544Z,18.30
2022-09-03T00:09:13.091Z,17.76
2022-09-03T00:11:54.017Z,16.88
2022-09-03T00:14:53.018Z,16.30
2022-09-03T00:17:55.990Z,15.80
2022-09-03T00:20:44.186Z,15.38
2022-09-03T00:23:19.467Z,15.04
2022-09-03T00:25:54.706Z,14.76
2022-09-03T00:28:43.448Z,14.50
2022-09-03T00:31:27.566Z,14.87
2022-09-03T00:34:02.550Z,17.00
2022-09-03T00:36:42.289Z,18.46
2022-09-03T00:39:16.841Z,17.86
2022-09-03T00:42:06.681Z,17.04
2022-09-03T00:45:15.381Z,16.34
2022-09-03T00:48:08.107Z,15.78
2022-09-03T00:50:53.857Z,15.34
2022-09-03T00:53:33.724Z,14.99
2022-09-03T00:56:16.193Z,14.68
2022-09-03T00:59:18.922Z,14.97
2022-09-03T01:02:01.417Z,17.21
2022-09-03T01:04:58.749Z,18.53
2022-09-03T01:07:46.333Z,17.75
2022-09-03T01:10:32.394Z,16.88
2022-09-03T01:13:24.036Z,16.23
2022-09-03T01:16:02.067Z,15.71
2022-09-03T01:19:03.316Z,15.30
2022-09-03T01:22:20.635Z,14.90
2022-09-03T01:25:15.800Z,14.50
2022-09-03T01:28:27.374Z,14.83
2022-09-03T01:31:11.922Z,17.16
2022-09-03T01:34:03.099Z,17.80
2022-09-03T01:36:59.066Z,16.94
2022-09-03T01:40:17.745Z,16.15
2022-09-03T01:43:00.248Z,15.49
2022-09-03T01:45:51.632Z,15.06
2022-09-03T01:48:38.057Z,14.68
2022-09-03T01:51:09.260Z,14.34
2022-09-03T01:54:02.070Z,14.60
2022-09-03T01:56:58.117Z,16.51
2022-09-03T01:59:38.671Z,18.48
2022-09-03T02:02:20.477Z,19.42
2022-09-03T02:05:24.721Z,18.47
2022-09-03T02:08:07.390Z,17.34
2022-09-03T02:10:50.951Z,16.61
2022-09-03T02:13:49.943Z,16.02
2022-09-03T02:16:22.261Z,15.49
2022-09-03T02:19:01.671Z,15.09
2022-09-03T02:21:35.555Z,14.70
2022-09-03T02:24:05.169Z,14.36
2022-09-03T02:26:33.011Z,14.49
2022-09-03T02:29:02.630Z,15.96
2022-09-03T02:31:30.909Z,17.63
2022-09-03T02:33:59.841Z,18.53
2022-09-03T02:36:32.384Z,17.85
2022-09-03T02:39:00.575Z,16.95
2022-09-03T02:41:28.832Z,16.27
2022-09-03T02:44:12.372Z,15.74
2022-09-03T02:46:52.107Z,15.25
2022-09-03T02:49:19.821Z,14.84
2022-09-03T02:51:47.738Z,14.50
2022-09-03T02:54:20.262Z,14.57
2022-09-03T02:56:49.901Z,16.12
2022-09-03T02:59:18.251Z,17.70
2022-09-03T03:01:46.693Z,18.56
2022-09-03T03:04:15.165Z,17.86
2022-09-03T03:06:42.981Z,16.99
2022-09-03T03:09:15.642Z,16.29
2022-09-03T03:11:44.313Z,15.74
2022-09-03T03:14:11.987Z,15.27
2022-09-03T03:16:39.823Z,14.87
2022-09-03T03:19:07.813Z,14.49
2022-09-03T03:21:35.597Z,14.50
2022-09-03T03:24:04.280Z,15.86
2022-09-03T03:26:32.840Z,17.65
2022-09-03T03:29:04.705Z,18.68
2022-09-03T03:31:33.780Z,17.93
2022-09-03T03:34:03.775Z,17.01
2022-09-03T03:36:33.677Z,16.27
2022-09-03T03:39:03.235Z,15.70
2022-09-03T03:41:34.034Z,15.22
2022-09-03T03:44:04.932Z,14.78
2022-09-03T03:46:36.741Z,14.41
2022-09-03T03:49:06.842Z,14.06
2022-09-03T03:51:36.268Z,14.31
2022-09-03T03:54:05.703Z,16.13
2022-09-03T03:56:34.945Z,17.90
2022-09-03T03:59:03.860Z,18.73
2022-09-03T04:01:32.766Z,17.90
2022-09-03T04:04:00.720Z,16.94
2022-09-03T04:06:29.188Z,16.20
2022-09-03T04:08:57.207Z,15.61
2022-09-03T04:11:26.243Z,15.13
2022-09-03T04:13:54.616Z,14.72
2022-09-03T04:16:25.390Z,14.33
2022-09-03T04:18:57.460Z,14.52
2022-09-03T04:21:28.663Z,16.75
2022-09-03T04:23:58.073Z,18.35
2022-09-03T04:26:31.689Z,17.67
2022-09-03T04:29:03.008Z,16.75
2022-09-03T04:31:31.845Z,16.05
2022-09-03T04:33:59.883Z,15.54
2022-09-03T04:36:29.987Z,15.12
2022-09-03T04:39:00.097Z,14.75
2022-09-03T04:41:30.217Z,14.43
2022-09-03T04:43:59.703Z,14.73
2022-09-03T04:46:35.499Z,16.77
2022-09-03T04:49:03.933Z,18.25
2022-09-03T04:51:32.351Z,17.67
2022-09-03T04:54:02.334Z,16.86
2022-09-03T04:56:35.572Z,16.22
2022-09-03T04:59:09.137Z,15.71
2022-09-03T05:01:39.665Z,15.30
2022-09-03T05:04:08.553Z,15.00
2022-09-03T05:06:37.428Z,14.78
2022-09-03T05:09:06.169Z,14.78
2022-09-03T05:11:34.353Z,14.96
2022-09-03T05:14:02.988Z,15.11
2022-09-03T05:16:31.146Z,15.06
2022-09-03T05:19:01.484Z,15.63
2022-09-03T05:21:30.793Z,17.95
2022-09-03T05:24:01.305Z,19.56
2022-09-03T05:26:32.039Z,18.98
2022-09-03T05:29:02.652Z,18.13
2022-09-03T05:31:32.118Z,17.46
2022-09-03T05:34:03.435Z,16.95
2022-09-03T05:36:34.839Z,16.53
2022-09-03T05:39:03.789Z,16.17
2022-09-03T05:41:34.394Z,15.88
2022-09-03T05:44:04.044Z,15.62
2022-09-03T05:46:33.659Z,15.40
2022-09-03T05:49:03.134Z,15.21
2022-09-03T05:51:32.034Z,15.50
2022-09-03T05:53:59.929Z,17.52
2022-09-03T05:56:29.647Z,18.50
2022-09-03T05:59:03.254Z,17.95
2022-09-03T06:01:51.598Z,17.29
2022-09-03T06:04:21.623Z,16.84
2022-09-03T06:06:50.188Z,16.58
2022-09-03T06:09:20.109Z,16.32
2022-09-03T06:11:50.239Z,16.07
2022-09-03T06:14:18.325Z,15.88
2022-09-03T06:16:53.049Z,15.74
2022-09-03T06:19:21.094Z,15.75
2022-09-03T06:21:48.940Z,15.77
2022-09-03T06:24:20.242Z,15.68
2022-09-03T06:26:48.167Z,15.56
2022-09-03T06:29:17.561Z,15.44
2022-09-03T06:31:45.582Z,15.33
2022-09-03T06:34:13.621Z,15.34
2022-09-03T06:36:41.465Z,16.91
2022-09-03T06:39:10.233Z,19.17
2022-09-03T06:41:38.436Z,20.38
2022-09-03T06:44:11.754Z,19.81
2022-09-03T06:46:42.857Z,19.14
2022-09-03T06:49:11.833Z,18.75
2022-09-03T06:51:40.580Z,18.86
2022-09-03T06:54:11.176Z,19.23
2022-09-03T06:56:41.523Z,19.61
2022-09-03T06:59:14.761Z,19.96
2022-09-03T07:01:46.297Z,20.22
2022-09-03T07:04:20.085Z,20.46
2022-09-03T07:06:48.774Z,20.70
2022-09-03T07:09:19.024Z,21.10
2022-09-03T07:11:48.326Z,21.38
2022-09-03T07:14:18.727Z,21.66
2022-09-03T07:16:48.615Z,22.01
2022-09-03T07:19:17.018Z,22.42
2022-09-03T07:21:49.537Z,22.79
2022-09-03T07:24:19.902Z,23.08
2022-09-03T07:26:49.602Z,23.10
2022-09-03T07:29:20.834Z,22.68
2022-09-03T07:31:53.571Z,22.14
2022-09-03T07:34:25.652Z,21.62
2022-09-03T07:36:55.132Z,21.19
2022-09-03T07:39:23.334Z,20.82
2022-09-03T07:41:51.977Z,20.49
2022-09-03T07:44:20.465Z,20.20
2022-09-03T07:46:51.308Z,19.92
2022-09-03T07:49:21.963Z,19.67
2022-09-03T07:51:54.693Z,19.46
2022-09-03T07:54:24.094Z,19.27
2022-09-03T07:56:52.091Z,19.12
2022-09-03T07:59:21.423Z,18.99
2022-09-03T08:01:51.015Z,18.85
2022-09-03T08:04:18.947Z,18.74
2022-09-03T08:06:47.335Z,18.65
2022-09-03T08:09:15.123Z,18.58
2022-09-03T08:11:43.922Z,18.51
2022-09-03T08:14:13.431Z,18.46
2022-09-03T08:16:44.036Z,18.41
2022-09-03T08:19:13.459Z,18.37
2022-09-03T08:21:42.359Z,18.35
2022-09-03T08:24:16.626Z,18.33
2022-09-03T08:26:50.652Z,18.31
2022-09-03T08:29:20.642Z,18.30
2022-09-03T08:31:48.859Z,18.30
2022-09-03T08:34:17.991Z,18.31
2022-09-03T08:36:47.372Z,18.31
2022-09-03T08:39:15.376Z,18.31
2022-09-03T08:42:01.036Z,18.32
2022-09-03T08:44:47.120Z,18.33
2022-09-03T08:47:35.007Z,18.35
2022-09-03T08:50:16.983Z,18.38
2022-09-03T08:52:49.962Z,18.42
2022-09-03T08:55:45.259Z,18.49
2022-09-03T08:58:15.028Z,18.54
2022-09-03T09:01:07.389Z,18.61
2022-09-03T09:04:10.801Z,18.68
2022-09-03T09:06:44.640Z,18.76
2022-09-03T09:09:43.040Z,18.83
2022-09-03T09:12:25.390Z,18.93
2022-09-03T09:15:26.329Z,19.01
2022-09-03T09:18:31.354Z,19.04
2022-09-03T09:21:20.965Z,19.09
2022-09-03T09:23:51.155Z,19.13
2022-09-03T09:26:22.355Z,19.17
2022-09-03T09:28:58.471Z,19.21
2022-09-03T09:31:28.580Z,19.25
2022-09-03T09:34:04.763Z,19.29
2022-09-03T09:36:42.885Z,19.34
2022-09-03T09:39:12.490Z,19.39
2022-09-03T09:41:40.156Z,19.44
2022-09-03T09:44:07.946Z,19.51
2022-09-03T09:46:39.544Z,19.56
2022-09-03T09:49:32.617Z,19.59
2022-09-03T09:52:16.348Z,19.63
2022-09-03T09:54:48.698Z,19.68
2022-09-03T09:57:24.609Z,19.72
2022-09-03T10:00:14.227Z,19.75
2022-09-03T10:02:51.595Z,19.79
2022-09-03T10:05:26.163Z,19.83
2022-09-03T10:07:59.494Z,19.91
2022-09-03T10:10:29.330Z,19.99
2022-09-03T10:13:09.483Z,20.03
2022-09-03T10:15:45.023Z,20.07
2022-09-03T10:18:43.578Z,20.13
2022-09-03T10:21:34.400Z,20.18
2022-09-03T10:24:33.653Z,20.23
2022-09-03T10:27:01.760Z,20.27
2022-09-03T10:29:30.231Z,20.32
2022-09-03T10:32:23.098Z,20.36
2022-09-03T10:35:02.377Z,20.40
2022-09-03T10:38:02.286Z,20.47
2022-09-03T10:40:49.377Z,20.54
2022-09-03T10:43:36.024Z,20.59
2022-09-03T10:46:17.491Z,20.61
2022-09-03T10:49:20.480Z,20.63
2022-09-03T10:51:59.563Z,20.65
2022-09-03T10:54:43.121Z,20.68
2022-09-03T10:57:35.981Z,20.71
2022-09-03T11:00:12.769Z,20.74
2022-09-03T11:02:52.601Z,20.77
2022-09-03T11:05:49.982Z,20.79
2022-09-03T11:08:26.210Z,20.82
2022-09-03T11:11:39.327Z,20.82
2022-09-03T11:14:10.203Z,20.82
2022-09-03T11:17:03.948Z,20.83
2022-09-03T11:19:47.090Z,20.85
2022-09-03T11:22:20.959Z,20.87
2022-09-03T11:24:58.389Z,20.87
2022-09-03T11:27:41.221Z,20.84
2022-09-03T11:30:22.186Z,20.84
2022-09-03T11:32:56.927Z,20.83
2022-09-03T11:35:38.131Z,20.82
2022-09-03T11:38:21.520Z,20.83
2022-09-03T11:41:04.364Z,20.83
2022-09-03T11:43:35.904Z,20.85
2022-09-03T11:46:12.728Z,20.85
2022-09-03T11:48:46.327Z,20.87
2022-09-03T11:51:30.726Z,20.88
2022-09-03T11:54:26.061Z,20.90
2022-09-03T11:57:16.428Z,20.92
2022-09-03T11:59:44.950Z,20.94
2022-09-03T12:02:35.308Z,20.94
2022-09-03T12:05:12.437Z,20.96
2022-09-03T12:07:45.852Z,20.97
2022-09-03T12:10:22.716Z,20.98
2022-09-03T12:12:54.958Z,21.00
2022-09-03T12:16:08.726Z,21.00
2022-09-03T12:18:37.951Z,21.01
2022-09-03T12:21:09.045Z,21.02
2022-09-03T12:23:44.841Z,21.03
2022-09-03T12:26:16.438Z,21.04
2022-09-03T12:28:50.437Z,21.05
2022-09-03T12:31:30.128Z,21.06
2022-09-03T12:34:15.216Z,21.08
2022-09-03T12:36:49.389Z,21.10
2022-09-03T12:42:27.842Z,21.13
2022-09-03T12:44:55.992Z,21.15
2022-09-03T12:47:35.545Z,21.15
2022-09-03T12:50:09.014Z,21.16
2022-09-03T12:52:50.925Z,21.16
2022-09-03T12:55:27.698Z,21.17
2022-09-03T12:58:17.356Z,21.19
2022-09-03T13:00:51.394Z,21.21
2022-09-03T13:03:34.543Z,21.22
2022-09-03T13:06:08.050Z,21.23
2022-09-03T13:08:48.851Z,21.23
2022-09-03T13:11:20.743Z,21.24
2022-09-03T13:13:58.253Z,21.25
2022-09-03T13:16:38.438Z,21.25
2022-09-03T13:19:09.390Z,21.26
2022-09-03T13:21:58.770Z,21.27
2022-09-03T13:24:39.221Z,21.27
2022-09-03T13:27:19.445Z,21.27
2022-09-03T13:29:55.952Z,21.27
2022-09-03T13:32:37.469Z,21.29
2022-09-03T13:35:17.693Z,21.30
2022-09-03T13:37:53.508Z,21.31
2022-09-03T13:40:45.721Z,21.32
2022-09-03T13:43:27.851Z,21.34
2022-09-03T13:46:13.908Z,21.35
2022-09-03T13:49:04.012Z,21.35
2022-09-03T13:51:40.040Z,21.36
2022-09-03T13:54:36.576Z,21.38
2022-09-03T13:57:31.650Z,21.38
2022-09-03T14:00:10.866Z,21.39
2022-09-03T14:02:54.319Z,21.39
2022-09-03T14:05:44.039Z,21.39
2022-09-03T14:08:59.068Z,21.38
2022-09-03T14:11:52.225Z,21.35
2022-09-03T14:15:00.168Z,21.30
2022-09-03T14:17:46.598Z,21.26
2022-09-03T14:20:52.052Z,21.26
2022-09-03T14:23:38.455Z,21.25
2022-09-03T14:26:07.641Z,21.23
2022-09-03T14:28:49.515Z,21.24
2022-09-03T14:31:52.175Z,21.24
2022-09-03T14:34:19.978Z,21.24
2022-09-03T14:37:03.476Z,21.25
2022-09-03T14:39:33.615Z,21.26
2022-09-03T14:42:14.756Z,21.26
2022-09-03T14:45:02.382Z,21.26
2022-09-03T14:47:59.871Z,21.25
2022-09-03T14:50:48.792Z,21.26
2022-09-03T14:54:03.329Z,21.27
2022-09-03T14:56:48.346Z,21.28
2022-09-03T14:59:34.570Z,21.30
2022-09-03T15:02:49.237Z,21.31
2022-09-03T15:05:49.461Z,21.30
2022-09-03T15:08:29.384Z,21.30
2022-09-03T15:11:02.797Z,21.30
2022-09-03T15:13:36.191Z,21.29
2022-09-03T15:16:19.396Z,21.27
2022-09-03T15:19:10.324Z,21.24
2022-09-03T15:21:50.356Z,21.22
2022-09-03T15:24:32.675Z,21.20
2022-09-03T15:27:29.698Z,21.19
2022-09-03T15:30:21.399Z,21.20
2022-09-03T15:33:04.182Z,21.20
2022-09-03T15:36:17.839Z,21.20
2022-09-03T15:39:00.729Z,21.20
2022-09-03T15:41:40.124Z,21.19
2022-09-03T15:44:19.007Z,21.17
2022-09-03T15:46:56.939Z,21.15
2022-09-03T15:49:40.944Z,21.11
2022-09-03T15:52:27.669Z,21.08
2022-09-03T15:55:09.871Z,21.03
2022-09-03T15:57:50.018Z,20.99
2022-09-03T16:00:21.638Z,20.95
2022-09-03T16:02:59.082Z,20.92
2022-09-03T16:05:48.420Z,20.89
2022-09-03T16:08:43.766Z,20.87
2022-09-03T16:11:21.995Z,20.85
2022-09-03T16:14:31.622Z,20.83
2022-09-03T16:17:18.605Z,20.82
2022-09-03T16:19:59.709Z,20.82
2022-09-03T16:22:31.960Z,20.82
2022-09-03T16:25:14.189Z,20.82
2022-09-03T16:28:07.637Z,20.81
2022-09-03T16:30:39.895Z,20.79
2022-09-03T16:33:07.520Z,20.77
2022-09-03T16:35:50.507Z,20.75
2022-09-03T16:38:44.103Z,20.72
2022-09-03T16:41:23.387Z,20.69
2022-09-03T16:43:57.241Z,20.66
2022-09-03T16:46:28.705Z,20.62
2022-09-03T16:49:06.639Z,20.60
2022-09-03T16:51:54.942Z,20.57
2022-09-03T16:54:57.371Z,20.54
2022-09-03T16:57:50.346Z,20.50
2022-09-03T17:00:21.523Z,20.46
2022-09-03T17:03:07.905Z,20.42
2022-09-03T17:06:14.153Z,20.37
2022-09-03T17:08:52.353Z,20.32
2022-09-03T17:11:23.639Z,20.27
2022-09-03T17:13:51.534Z,20.22
2022-09-03T17:16:41.598Z,20.17
2022-09-03T17:19:52.782Z,20.11
2022-09-03T17:22:47.290Z,20.03
2022-09-03T17:25:24.098Z,19.97
2022-09-03T17:28:20.270Z,19.90
2022-09-03T17:31:16.104Z,19.83
2022-09-03T17:34:12.516Z,19.75
2022-09-03T17:37:00.280Z,19.67
2022-09-03T17:39:37.077Z,19.60
2022-09-03T17:42:16.277Z,19.53
2022-09-03T17:45:29.838Z,19.45
2022-09-03T17:48:22.235Z,19.37
2022-09-03T17:51:03.187Z,19.29
2022-09-03T17:53:40.537Z,19.22
2022-09-03T17:56:33.670Z,19.14
2022-09-03T17:59:21.231Z,19.06
2022-09-03T18:01:55.365Z,18.97
2022-09-03T18:04:46.222Z,18.90
2022-09-03T18:07:39.461Z,18.84
2022-09-03T18:10:22.145Z,18.76
2022-09-03T18:13:16.062Z,18.72
2022-09-03T18:15:58.146Z,18.66
2022-09-03T18:18:31.360Z,18.62
2022-09-03T18:21:25.450Z,18.58
2022-09-03T18:24:23.426Z,18.54
2022-09-03T18:27:18.206Z,18.49
2022-09-03T18:30:08.016Z,18.45
2022-09-03T18:32:54.428Z,18.41
2022-09-03T18:35:44.468Z,18.37
2022-09-03T18:38:31.048Z,18.34
2022-09-03T18:41:51.895Z,18.31
2022-09-03T18:45:56.348Z,18.27
2022-09-03T18:48:54.261Z,18.23
2022-09-03T18:51:57.588Z,18.20
2022-09-03T18:55:08.179Z,18.17
2022-09-03T18:58:18.204Z,18.14
2022-09-03T19:01:34.921Z,18.11
2022-09-03T19:04:30.496Z,18.07
2022-09-03T19:07:52.654Z,18.04
2022-09-03T19:11:28.155Z,18.02
2022-09-03T19:14:22.563Z,17.99
2022-09-03T19:17:20.014Z,17.96
2022-09-03T19:20:34.160Z,17.94
2022-09-03T19:23:22.016Z,17.92
2022-09-03T19:26:14.587Z,17.90
2022-09-03T19:29:06.291Z,17.88
2022-09-03T19:32:03.999Z,17.87
2022-09-03T19:35:08.960Z,17.86
2022-09-03T19:38:17.466Z,17.84
2022-09-03T19:41:15.983Z,17.82
2022-09-03T19:44:07.460Z,17.80
2022-09-03T19:47:08.883Z,17.78
2022-09-03T19:50:31.733Z,17.76
2022-09-03T19:53:21.773Z,17.73
2022-09-03T19:56:18.900Z,17.69
2022-09-03T19:59:13.093Z,17.66
2022-09-03T20:02:01.267Z,17.62
2022-09-03T20:04:51.757Z,17.59
2022-09-03T20:07:40.148Z,17.55
2022-09-03T20:10:24.044Z,17.51
2022-09-03T20:13:00.692Z,17.47
2022-09-03T20:15:42.327Z,17.44
2022-09-03T20:18:23.732Z,17.40
2022-09-03T20:21:08.694Z,17.36
2022-09-03T20:23:41.383Z,17.32
2022-09-03T20:26:30.501Z,17.27
2022-09-03T20:29:22.918Z,17.22
2022-09-03T20:31:56.658Z,17.16
2022-09-03T20:34:27.361Z,17.11
2022-09-03T20:37:14.582Z,17.06
2022-09-03T20:40:11.960Z,17.00
2022-09-03T20:43:07.051Z,16.94
2022-09-03T20:46:18.995Z,16.87
2022-09-03T20:49:08.491Z,16.81
2022-09-03T20:51:42.289Z,16.75
2022-09-03T20:54:13.637Z,16.71
2022-09-03T20:56:50.255Z,16.66
2022-09-03T20:59:25.620Z,16.61
2022-09-03T21:02:05.873Z,16.57
2022-09-03T21:05:02.914Z,16.52
2022-09-03T21:07:43.980Z,16.48
2022-09-03T21:10:55.240Z,16.43
2022-09-03T21:13:44.910Z,16.39
2022-09-03T21:16:13.751Z,16.36
2022-09-03T21:19:19.656Z,16.32
2022-09-03T21:21:53.456Z,16.28
2022-09-03T21:24:31.297Z,16.26
2022-09-03T21:27:05.381Z,16.23
2022-09-03T21:29:41.432Z,16.20
2022-09-03T21:32:19.827Z,16.18
2022-09-03T21:35:08.985Z,16.16
2022-09-03T21:37:39.664Z,16.13
2022-09-03T21:40:12.211Z,16.11
2022-09-03T21:42:52.892Z,16.09
2022-09-03T21:45:41.184Z,16.07
2022-09-03T21:48:16.467Z,16.04
2022-09-03T21:50:57.426Z,16.02
2022-09-03T21:53:33.226Z,16.01
2022-09-03T21:56:25.504Z,15.99
2022-09-03T21:59:19.765Z,15.97
2022-09-03T22:02:24.538Z,15.96
2022-09-03T22:04:54.083Z,15.95
2022-09-03T22:07:37.044Z,15.93
2022-09-03T22:10:20.259Z,15.92
2022-09-03T22:13:04.204Z,15.91
2022-09-03T22:15:33.282Z,15.90
2022-09-03T22:18:15.480Z,15.90
2022-09-03T22:20:58.040Z,15.88
2022-09-03T22:23:43.745Z,15.88
2022-09-03T22:26:45.814Z,15.86
2022-09-03T22:29:35.231Z,15.85
2022-09-03T22:32:24.946Z,15.84
2022-09-03T22:35:26.190Z,15.84
2022-09-03T22:38:16.126Z,15.82
2022-09-03T22:40:52.463Z,15.81
2022-09-03T22:43:42.756Z,15.81
2022-09-03T22:46:14.650Z,15.79
2022-09-03T22:49:00.405Z,15.78
2022-09-03T22:51:36.690Z,15.77
2022-09-03T22:54:27.782Z,15.76
2022-09-03T22:56:58.038Z,15.75
2022-09-03T22:59:33.273Z,15.74
2022-09-03T23:02:11.309Z,15.73
2022-09-03T23:05:06.298Z,15.72
2022-09-03T23:07:55.518Z,15.71
2022-09-03T23:10:31.199Z,15.69
2022-09-03T23:13:16.733Z,15.68
2022-09-03T23:15:52.033Z,15.67
2022-09-03T23:18:27.126Z,15.66
2022-09-03T23:21:22.232Z,15.64
2022-09-03T23:23:59.911Z,15.63
2022-09-03T23:26:46.278Z,15.61
2022-09-03T23:29:26.097Z,15.60
2022-09-03T23:31:57.624Z,15.58
2022-09-03T23:34:27.085Z,15.57
2022-09-03T23:37:34.509Z,15.55
2022-09-03T23:40:09.209Z,15.53
2022-09-03T23:42:55.419Z,15.51
2022-09-03T23:45:47.906Z,15.49
2022-09-03T23:48:30.079Z,15.48
2022-09-03T23:51:22.703Z,15.46
2022-09-03T23:54:19.255Z,15.43
2022-09-03T23:57:07.146Z,15.41
